sensor_id;sensor_type;location;lat;lon;timestamp;P1;durP1;ratioP1;P2;durP2;ratioP2
18651;SDS011;9455;54.302;10.124;2023-04-25T00:02:04;17.97;;;3.33;;
18651;SDS011;9455;54.302;10.124;2023-04-25T00:04:31;17.33;;;2.63;;
18651;SDS011;9455;54.302;10.124;2023-04-25T00:07:00;10.87;;;2.50;;
18651;SDS011;9455;54.302;10.124;2023-04-25T00:09:27;12.43;;;2.60;;
18651;SDS011;9455;54.302;10.124;2023-04-25T00:11:54;3.77;;;2.30;;
18651;SDS011;9455;54.302;10.124;2023-04-25T00:14:20;14.63;;;2.60;;
18651;SDS011;9455;54.302;10.124;2023-04-25T00:16:48;10.40;;;2.47;;
18651;SDS011;9455;54.302;10.124;2023-04-25T00:19:16;8.93;;;2.43;;
18651;SDS011;9455;54.302;10.124;2023-04-25T00:21:43;13.57;;;2.23;;
18651;SDS011;9455;54.302;10.124;2023-04-25T00:24:12;11.17;;;2.33;;
18651;SDS011;9455;54.302;10.124;2023-04-25T00:26:39;12.77;;;3.20;;
18651;SDS011;9455;54.302;10.124;2023-04-25T00:29:06;16.70;;;3.03;;
18651;SDS011;9455;54.302;10.124;2023-04-25T00:31:32;9.20;;;3.40;;
18651;SDS011;9455;54.302;10.124;2023-04-25T00:33:59;10.60;;;2.87;;
18651;SDS011;9455;54.302;10.124;2023-04-25T00:36:25;13.93;;;2.67;;
18651;SDS011;9455;54.302;10.124;2023-04-25T00:38:52;35.33;;;8.67;;
18651;SDS011;9455;54.302;10.124;2023-04-25T00:41:21;22.87;;;3.17;;
18651;SDS011;9455;54.302;10.124;2023-04-25T00:43:48;19.37;;;3.03;;
18651;SDS011;9455;54.302;10.124;2023-04-25T00:46:16;11.23;;;2.47;;
18651;SDS011;9455;54.302;10.124;2023-04-25T00:48:42;32.67;;;3.90;;
18651;SDS011;9455;54.302;10.124;2023-04-25T00:51:09;15.77;;;3.07;;
18651;SDS011;9455;54.302;10.124;2023-04-25T00:53:40;14.23;;;2.87;;
18651;SDS011;9455;54.302;10.124;2023-04-25T00:56:06;17.03;;;3.10;;
18651;SDS011;9455;54.302;10.124;2023-04-25T00:58:34;11.87;;;2.80;;
18651;SDS011;9455;54.302;10.124;2023-04-25T01:01:02;19.67;;;3.00;;
18651;SDS011;9455;54.302;10.124;2023-04-25T01:03:29;10.33;;;2.80;;
18651;SDS011;9455;54.302;10.124;2023-04-25T01:06:00;19.10;;;3.07;;
18651;SDS011;9455;54.302;10.124;2023-04-25T01:08:27;4.90;;;2.77;;
18651;SDS011;9455;54.302;10.124;2023-04-25T01:10:55;14.83;;;3.30;;
18651;SDS011;9455;54.302;10.124;2023-04-25T01:13:21;22.17;;;3.73;;
18651;SDS011;9455;54.302;10.124;2023-04-25T01:15:49;16.53;;;3.47;;
18651;SDS011;9455;54.302;10.124;2023-04-25T01:18:16;16.63;;;3.43;;
18651;SDS011;9455;54.302;10.124;2023-04-25T01:20:44;13.50;;;3.20;;
18651;SDS011;9455;54.302;10.124;2023-04-25T01:23:13;29.20;;;3.23;;
18651;SDS011;9455;54.302;10.124;2023-04-25T01:25:39;17.27;;;2.90;;
18651;SDS011;9455;54.302;10.124;2023-04-25T01:28:06;17.67;;;2.90;;
18651;SDS011;9455;54.302;10.124;2023-04-25T01:30:33;16.67;;;3.03;;
18651;SDS011;9455;54.302;10.124;2023-04-25T01:33:00;17.63;;;2.77;;
18651;SDS011;9455;54.302;10.124;2023-04-25T01:35:29;19.90;;;3.63;;
18651;SDS011;9455;54.302;10.124;2023-04-25T01:37:56;9.90;;;2.67;;
18651;SDS011;9455;54.302;10.124;2023-04-25T01:40:25;9.63;;;3.33;;
18651;SDS011;9455;54.302;10.124;2023-04-25T01:42:53;11.43;;;2.73;;
18651;SDS011;9455;54.302;10.124;2023-04-25T01:45:20;21.53;;;3.07;;
18651;SDS011;9455;54.302;10.124;2023-04-25T01:47:47;13.50;;;2.70;;
18651;SDS011;9455;54.302;10.124;2023-04-25T01:50:15;21.13;;;2.30;;
18651;SDS011;9455;54.302;10.124;2023-04-25T01:52:43;13.00;;;2.53;;
18651;SDS011;9455;54.302;10.124;2023-04-25T01:55:09;11.83;;;3.13;;
18651;SDS011;9455;54.302;10.124;2023-04-25T01:57:37;18.07;;;2.80;;
18651;SDS011;9455;54.302;10.124;2023-04-25T02:00:05;14.27;;;3.03;;
18651;SDS011;9455;54.302;10.124;2023-04-25T02:02:33;9.90;;;2.80;;
18651;SDS011;9455;54.302;10.124;2023-04-25T02:05:00;17.13;;;3.27;;
18651;SDS011;9455;54.302;10.124;2023-04-25T02:07:27;14.23;;;2.87;;
18651;SDS011;9455;54.302;10.124;2023-04-25T02:09:53;18.73;;;3.30;;
18651;SDS011;9455;54.302;10.124;2023-04-25T02:12:20;10.57;;;2.43;;
18651;SDS011;9455;54.302;10.124;2023-04-25T02:14:48;9.87;;;2.47;;
18651;SDS011;9455;54.302;10.124;2023-04-25T02:17:14;18.70;;;4.33;;
18651;SDS011;9455;54.302;10.124;2023-04-25T02:19:41;22.37;;;3.27;;
18651;SDS011;9455;54.302;10.124;2023-04-25T02:22:07;14.77;;;2.73;;
18651;SDS011;9455;54.302;10.124;2023-04-25T02:24:34;16.53;;;2.47;;
18651;SDS011;9455;54.302;10.124;2023-04-25T02:27:01;6.60;;;2.50;;
18651;SDS011;9455;54.302;10.124;2023-04-25T02:29:27;16.87;;;3.20;;
18651;SDS011;9455;54.302;10.124;2023-04-25T02:31:56;22.77;;;3.40;;
18651;SDS011;9455;54.302;10.124;2023-04-25T02:34:22;22.43;;;4.20;;
18651;SDS011;9455;54.302;10.124;2023-04-25T02:36:49;13.50;;;3.30;;
18651;SDS011;9455;54.302;10.124;2023-04-25T02:39:16;21.43;;;2.80;;
18651;SDS011;9455;54.302;10.124;2023-04-25T02:41:43;14.00;;;2.40;;
18651;SDS011;9455;54.302;10.124;2023-04-25T02:44:09;12.30;;;2.93;;
18651;SDS011;9455;54.302;10.124;2023-04-25T02:46:36;23.97;;;3.43;;
18651;SDS011;9455;54.302;10.124;2023-04-25T02:49:04;17.27;;;2.97;;
18651;SDS011;9455;54.302;10.124;2023-04-25T02:51:31;16.80;;;3.60;;
18651;SDS011;9455;54.302;10.124;2023-04-25T02:53:57;16.80;;;3.67;;
18651;SDS011;9455;54.302;10.124;2023-04-25T02:56:24;17.97;;;2.57;;
18651;SDS011;9455;54.302;10.124;2023-04-25T02:58:51;23.57;;;3.93;;
18651;SDS011;9455;54.302;10.124;2023-04-25T03:01:18;26.47;;;3.33;;
18651;SDS011;9455;54.302;10.124;2023-04-25T03:03:45;20.20;;;3.80;;
18651;SDS011;9455;54.302;10.124;2023-04-25T03:06:13;22.37;;;3.00;;
18651;SDS011;9455;54.302;10.124;2023-04-25T03:08:40;16.90;;;3.20;;
18651;SDS011;9455;54.302;10.124;2023-04-25T03:11:07;19.97;;;3.30;;
18651;SDS011;9455;54.302;10.124;2023-04-25T03:13:33;16.93;;;2.97;;
18651;SDS011;9455;54.302;10.124;2023-04-25T03:16:00;19.33;;;3.27;;
18651;SDS011;9455;54.302;10.124;2023-04-25T03:18:26;16.13;;;3.13;;
18651;SDS011;9455;54.302;10.124;2023-04-25T03:20:53;21.13;;;3.73;;
18651;SDS011;9455;54.302;10.124;2023-04-25T03:23:21;17.63;;;3.13;;
18651;SDS011;9455;54.302;10.124;2023-04-25T03:25:47;12.67;;;2.83;;
18651;SDS011;9455;54.302;10.124;2023-04-25T03:28:14;25.50;;;3.80;;
18651;SDS011;9455;54.302;10.124;2023-04-25T03:30:40;16.97;;;3.20;;
18651;SDS011;9455;54.302;10.124;2023-04-25T03:33:07;13.23;;;2.83;;
18651;SDS011;9455;54.302;10.124;2023-04-25T03:35:33;19.93;;;2.63;;
18651;SDS011;9455;54.302;10.124;2023-04-25T03:38:00;17.07;;;2.40;;
18651;SDS011;9455;54.302;10.124;2023-04-25T03:40:28;12.60;;;2.67;;
18651;SDS011;9455;54.302;10.124;2023-04-25T03:42:54;17.97;;;2.83;;
18651;SDS011;9455;54.302;10.124;2023-04-25T03:45:21;14.80;;;2.23;;
18651;SDS011;9455;54.302;10.124;2023-04-25T03:47:48;24.03;;;3.37;;
18651;SDS011;9455;54.302;10.124;2023-04-25T03:50:14;18.43;;;3.13;;
18651;SDS011;9455;54.302;10.124;2023-04-25T03:52:42;12.70;;;2.77;;
18651;SDS011;9455;54.302;10.124;2023-04-25T03:55:09;12.37;;;3.10;;
18651;SDS011;9455;54.302;10.124;2023-04-25T03:57:37;15.37;;;2.90;;
18651;SDS011;9455;54.302;10.124;2023-04-25T04:00:04;10.33;;;2.73;;
18651;SDS011;9455;54.302;10.124;2023-04-25T04:02:32;18.37;;;3.07;;
18651;SDS011;9455;54.302;10.124;2023-04-25T04:05:01;21.50;;;3.83;;
18651;SDS011;9455;54.302;10.124;2023-04-25T04:07:28;20.60;;;3.10;;
18651;SDS011;9455;54.302;10.124;2023-04-25T04:09:54;21.00;;;3.17;;
18651;SDS011;9455;54.302;10.124;2023-04-25T04:12:21;21.13;;;3.60;;
18651;SDS011;9455;54.302;10.124;2023-04-25T04:14:49;20.47;;;3.30;;
18651;SDS011;9455;54.302;10.124;2023-04-25T04:17:15;12.90;;;2.57;;
18651;SDS011;9455;54.302;10.124;2023-04-25T04:19:42;11.60;;;2.90;;
18651;SDS011;9455;54.302;10.124;2023-04-25T04:22:09;19.13;;;3.63;;
18651;SDS011;9455;54.302;10.124;2023-04-25T04:24:36;14.63;;;3.10;;
18651;SDS011;9455;54.302;10.124;2023-04-25T04:27:02;13.30;;;2.83;;
18651;SDS011;9455;54.302;10.124;2023-04-25T04:29:29;18.23;;;2.57;;
18651;SDS011;9455;54.302;10.124;2023-04-25T04:31:57;12.30;;;2.60;;
18651;SDS011;9455;54.302;10.124;2023-04-25T04:34:26;12.00;;;2.57;;
18651;SDS011;9455;54.302;10.124;2023-04-25T04:36:52;14.10;;;3.10;;
18651;SDS011;9455;54.302;10.124;2023-04-25T04:39:19;20.43;;;2.90;;
18651;SDS011;9455;54.302;10.124;2023-04-25T04:41:46;7.67;;;2.80;;
18651;SDS011;9455;54.302;10.124;2023-04-25T04:44:13;16.50;;;3.23;;
18651;SDS011;9455;54.302;10.124;2023-04-25T04:46:40;16.87;;;2.90;;
18651;SDS011;9455;54.302;10.124;2023-04-25T04:49:08;23.43;;;3.90;;
18651;SDS011;9455;54.302;10.124;2023-04-25T04:51:35;31.07;;;3.40;;
18651;SDS011;9455;54.302;10.124;2023-04-25T04:54:01;14.00;;;2.47;;
18651;SDS011;9455;54.302;10.124;2023-04-25T04:56:28;19.97;;;3.40;;
18651;SDS011;9455;54.302;10.124;2023-04-25T04:58:56;24.10;;;4.00;;
18651;SDS011;9455;54.302;10.124;2023-04-25T05:01:22;13.30;;;2.50;;
18651;SDS011;9455;54.302;10.124;2023-04-25T05:03:49;16.47;;;2.40;;
18651;SDS011;9455;54.302;10.124;2023-04-25T05:06:17;15.57;;;3.20;;
18651;SDS011;9455;54.302;10.124;2023-04-25T05:08:44;14.30;;;2.63;;
18651;SDS011;9455;54.302;10.124;2023-04-25T05:11:11;16.07;;;2.63;;
18651;SDS011;9455;54.302;10.124;2023-04-25T05:13:38;23.23;;;3.40;;
18651;SDS011;9455;54.302;10.124;2023-04-25T05:16:04;18.50;;;2.63;;
18651;SDS011;9455;54.302;10.124;2023-04-25T05:18:31;15.67;;;3.07;;
18651;SDS011;9455;54.302;10.124;2023-04-25T05:20:57;12.00;;;2.30;;
18651;SDS011;9455;54.302;10.124;2023-04-25T05:23:25;16.40;;;2.63;;
18651;SDS011;9455;54.302;10.124;2023-04-25T05:25:52;20.87;;;3.60;;
18651;SDS011;9455;54.302;10.124;2023-04-25T05:28:19;16.20;;;2.90;;
18651;SDS011;9455;54.302;10.124;2023-04-25T05:30:46;15.33;;;2.50;;
18651;SDS011;9455;54.302;10.124;2023-04-25T05:33:12;12.63;;;2.80;;
18651;SDS011;9455;54.302;10.124;2023-04-25T05:35:39;13.43;;;3.20;;
18651;SDS011;9455;54.302;10.124;2023-04-25T05:38:06;13.70;;;2.43;;
18651;SDS011;9455;54.302;10.124;2023-04-25T05:40:34;15.00;;;2.33;;
18651;SDS011;9455;54.302;10.124;2023-04-25T05:43:00;8.07;;;2.23;;
18651;SDS011;9455;54.302;10.124;2023-04-25T05:45:27;18.33;;;2.30;;
18651;SDS011;9455;54.302;10.124;2023-04-25T05:47:53;14.80;;;2.77;;
18651;SDS011;9455;54.302;10.124;2023-04-25T05:50:20;20.53;;;2.17;;
18651;SDS011;9455;54.302;10.124;2023-04-25T05:52:47;19.57;;;2.80;;
18651;SDS011;9455;54.302;10.124;2023-04-25T05:55:13;12.03;;;3.00;;
18651;SDS011;9455;54.302;10.124;2023-04-25T05:57:42;17.00;;;3.83;;
18651;SDS011;9455;54.302;10.124;2023-04-25T06:00:11;20.23;;;2.80;;
18651;SDS011;9455;54.302;10.124;2023-04-25T06:02:40;14.10;;;2.57;;
18651;SDS011;9455;54.302;10.124;2023-04-25T06:05:07;16.67;;;2.77;;
18651;SDS011;9455;54.302;10.124;2023-04-25T06:07:34;8.57;;;2.07;;
18651;SDS011;9455;54.302;10.124;2023-04-25T06:10:00;24.13;;;2.83;;
18651;SDS011;9455;54.302;10.124;2023-04-25T06:12:28;12.37;;;2.77;;
18651;SDS011;9455;54.302;10.124;2023-04-25T06:14:56;18.03;;;2.70;;
18651;SDS011;9455;54.302;10.124;2023-04-25T06:17:23;15.27;;;2.60;;
18651;SDS011;9455;54.302;10.124;2023-04-25T06:19:49;11.43;;;2.20;;
18651;SDS011;9455;54.302;10.124;2023-04-25T06:22:16;18.90;;;3.10;;
18651;SDS011;9455;54.302;10.124;2023-04-25T06:24:42;13.47;;;2.20;;
18651;SDS011;9455;54.302;10.124;2023-04-25T06:27:09;16.57;;;2.67;;
18651;SDS011;9455;54.302;10.124;2023-04-25T06:29:35;10.00;;;2.30;;
18651;SDS011;9455;54.302;10.124;2023-04-25T06:32:04;10.10;;;2.33;;
18651;SDS011;9455;54.302;10.124;2023-04-25T06:34:31;13.90;;;2.63;;
18651;SDS011;9455;54.302;10.124;2023-04-25T06:36:57;13.63;;;2.60;;
18651;SDS011;9455;54.302;10.124;2023-04-25T06:39:24;7.50;;;2.20;;
18651;SDS011;9455;54.302;10.124;2023-04-25T06:41:50;10.50;;;2.00;;
18651;SDS011;9455;54.302;10.124;2023-04-25T06:44:18;17.50;;;3.20;;
18651;SDS011;9455;54.302;10.124;2023-04-25T06:46:44;10.77;;;2.33;;
18651;SDS011;9455;54.302;10.124;2023-04-25T06:49:12;10.90;;;2.23;;
18651;SDS011;9455;54.302;10.124;2023-04-25T06:51:40;14.73;;;2.53;;
18651;SDS011;9455;54.302;10.124;2023-04-25T06:54:06;16.00;;;2.20;;
18651;SDS011;9455;54.302;10.124;2023-04-25T06:56:33;9.53;;;2.40;;
18651;SDS011;9455;54.302;10.124;2023-04-25T06:59:00;11.07;;;2.37;;
18651;SDS011;9455;54.302;10.124;2023-04-25T07:01:26;18.00;;;2.40;;
18651;SDS011;9455;54.302;10.124;2023-04-25T07:03:53;9.20;;;2.50;;
18651;SDS011;9455;54.302;10.124;2023-04-25T07:06:21;19.63;;;3.03;;
18651;SDS011;9455;54.302;10.124;2023-04-25T07:08:47;9.13;;;2.00;;
18651;SDS011;9455;54.302;10.124;2023-04-25T07:11:14;13.67;;;2.10;;
18651;SDS011;9455;54.302;10.124;2023-04-25T07:13:40;15.87;;;3.23;;
18651;SDS011;9455;54.302;10.124;2023-04-25T07:16:07;6.10;;;2.43;;
18651;SDS011;9455;54.302;10.124;2023-04-25T07:18:33;10.93;;;2.30;;
18651;SDS011;9455;54.302;10.124;2023-04-25T07:21:00;18.00;;;3.20;;
18651;SDS011;9455;54.302;10.124;2023-04-25T07:23:28;18.40;;;2.40;;
18651;SDS011;9455;54.302;10.124;2023-04-25T07:25:55;9.03;;;2.27;;
18651;SDS011;9455;54.302;10.124;2023-04-25T07:28:21;9.30;;;3.00;;
18651;SDS011;9455;54.302;10.124;2023-04-25T07:30:48;23.37;;;2.87;;
18651;SDS011;9455;54.302;10.124;2023-04-25T07:33:15;14.43;;;2.33;;
18651;SDS011;9455;54.302;10.124;2023-04-25T07:35:41;16.17;;;2.47;;
18651;SDS011;9455;54.302;10.124;2023-04-25T07:38:08;7.97;;;1.87;;
18651;SDS011;9455;54.302;10.124;2023-04-25T07:40:36;15.33;;;2.03;;
18651;SDS011;9455;54.302;10.124;2023-04-25T07:43:03;9.93;;;2.37;;
18651;SDS011;9455;54.302;10.124;2023-04-25T07:45:29;12.90;;;2.03;;
18651;SDS011;9455;54.302;10.124;2023-04-25T07:47:56;6.10;;;2.10;;
18651;SDS011;9455;54.302;10.124;2023-04-25T07:50:23;10.60;;;1.53;;
18651;SDS011;9455;54.302;10.124;2023-04-25T07:52:49;8.60;;;2.00;;
18651;SDS011;9455;54.302;10.124;2023-04-25T07:55:16;6.60;;;2.07;;
18651;SDS011;9455;54.302;10.124;2023-04-25T07:57:44;15.67;;;2.63;;
18651;SDS011;9455;54.302;10.124;2023-04-25T08:00:11;12.93;;;2.17;;
18651;SDS011;9455;54.302;10.124;2023-04-25T08:02:39;15.20;;;1.90;;
18651;SDS011;9455;54.302;10.124;2023-04-25T08:05:06;5.20;;;1.87;;
18651;SDS011;9455;54.302;10.124;2023-04-25T08:07:36;11.13;;;1.73;;
18651;SDS011;9455;54.302;10.124;2023-04-25T08:10:03;12.40;;;2.37;;
18651;SDS011;9455;54.302;10.124;2023-04-25T08:12:31;14.23;;;2.00;;
18651;SDS011;9455;54.302;10.124;2023-04-25T08:14:59;15.50;;;2.40;;
18651;SDS011;9455;54.302;10.124;2023-04-25T08:17:25;7.80;;;1.83;;
18651;SDS011;9455;54.302;10.124;2023-04-25T08:19:52;8.53;;;1.47;;
18651;SDS011;9455;54.302;10.124;2023-04-25T08:22:19;9.73;;;2.57;;
18651;SDS011;9455;54.302;10.124;2023-04-25T08:24:45;14.33;;;1.80;;
18651;SDS011;9455;54.302;10.124;2023-04-25T08:27:12;16.63;;;2.83;;
18651;SDS011;9455;54.302;10.124;2023-04-25T08:29:38;8.50;;;2.07;;
18651;SDS011;9455;54.302;10.124;2023-04-25T08:32:06;11.27;;;1.93;;
18651;SDS011;9455;54.302;10.124;2023-04-25T08:34:32;5.73;;;2.17;;
18651;SDS011;9455;54.302;10.124;2023-04-25T08:36:59;7.27;;;1.87;;
18651;SDS011;9455;54.302;10.124;2023-04-25T08:39:26;11.63;;;1.77;;
18651;SDS011;9455;54.302;10.124;2023-04-25T08:41:52;6.30;;;1.90;;
18651;SDS011;9455;54.302;10.124;2023-04-25T08:44:19;13.30;;;1.97;;
18651;SDS011;9455;54.302;10.124;2023-04-25T08:46:46;17.50;;;2.03;;
18651;SDS011;9455;54.302;10.124;2023-04-25T08:49:16;10.43;;;1.93;;
18651;SDS011;9455;54.302;10.124;2023-04-25T08:51:44;2.53;;;1.60;;
18651;SDS011;9455;54.302;10.124;2023-04-25T08:54:12;13.57;;;1.50;;
18651;SDS011;9455;54.302;10.124;2023-04-25T08:56:40;10.60;;;2.17;;
18651;SDS011;9455;54.302;10.124;2023-04-25T08:59:09;12.20;;;1.70;;
18651;SDS011;9455;54.302;10.124;2023-04-25T09:01:37;13.23;;;1.40;;
18651;SDS011;9455;54.302;10.124;2023-04-25T09:04:03;6.27;;;1.60;;
18651;SDS011;9455;54.302;10.124;2023-04-25T09:06:32;9.97;;;2.43;;
18651;SDS011;9455;54.302;10.124;2023-04-25T09:09:01;4.47;;;1.60;;
18651;SDS011;9455;54.302;10.124;2023-04-25T09:11:29;5.40;;;1.00;;
18651;SDS011;9455;54.302;10.124;2023-04-25T09:14:09;7.40;;;1.37;;
18651;SDS011;9455;54.302;10.124;2023-04-25T09:16:42;5.73;;;2.47;;
18651;SDS011;9455;54.302;10.124;2023-04-25T09:19:25;19.37;;;1.70;;
18651;SDS011;9455;54.302;10.124;2023-04-25T09:21:54;13.00;;;1.60;;
18651;SDS011;9455;54.302;10.124;2023-04-25T09:24:29;10.03;;;1.47;;
18651;SDS011;9455;54.302;10.124;2023-04-25T09:26:57;3.13;;;1.53;;
18651;SDS011;9455;54.302;10.124;2023-04-25T09:29:28;11.47;;;2.07;;
18651;SDS011;9455;54.302;10.124;2023-04-25T09:32:04;18.07;;;2.27;;
18651;SDS011;9455;54.302;10.124;2023-04-25T09:34:38;11.33;;;1.97;;
18651;SDS011;9455;54.302;10.124;2023-04-25T09:37:07;5.23;;;1.20;;
18651;SDS011;9455;54.302;10.124;2023-04-25T09:39:35;5.53;;;1.60;;
18651;SDS011;9455;54.302;10.124;2023-04-25T09:42:02;16.53;;;1.90;;
18651;SDS011;9455;54.302;10.124;2023-04-25T09:44:29;4.43;;;1.50;;
18651;SDS011;9455;54.302;10.124;2023-04-25T09:46:56;9.57;;;2.13;;
18651;SDS011;9455;54.302;10.124;2023-04-25T09:49:24;14.53;;;2.30;;
18651;SDS011;9455;54.302;10.124;2023-04-25T09:51:55;14.13;;;1.80;;
18651;SDS011;9455;54.302;10.124;2023-04-25T09:54:24;11.83;;;2.13;;
18651;SDS011;9455;54.302;10.124;2023-04-25T09:56:51;8.53;;;3.07;;
18651;SDS011;9455;54.302;10.124;2023-04-25T09:59:19;9.47;;;1.87;;
18651;SDS011;9455;54.302;10.124;2023-04-25T10:01:47;13.33;;;2.07;;
18651;SDS011;9455;54.302;10.124;2023-04-25T10:04:15;10.63;;;2.53;;
18651;SDS011;9455;54.302;10.124;2023-04-25T10:06:46;9.77;;;2.50;;
18651;SDS011;9455;54.302;10.124;2023-04-25T10:09:15;10.93;;;1.43;;
18651;SDS011;9455;54.302;10.124;2023-04-25T10:11:45;5.47;;;1.20;;
18651;SDS011;9455;54.302;10.124;2023-04-25T10:14:13;4.00;;;1.30;;
18651;SDS011;9455;54.302;10.124;2023-04-25T10:16:40;19.23;;;1.93;;
18651;SDS011;9455;54.302;10.124;2023-04-25T10:19:07;4.30;;;1.63;;
18651;SDS011;9455;54.302;10.124;2023-04-25T10:21:35;4.53;;;1.30;;
18651;SDS011;9455;54.302;10.124;2023-04-25T10:24:10;12.60;;;1.50;;
18651;SDS011;9455;54.302;10.124;2023-04-25T10:26:37;6.97;;;1.60;;
18651;SDS011;9455;54.302;10.124;2023-04-25T10:29:06;6.13;;;1.70;;
18651;SDS011;9455;54.302;10.124;2023-04-25T10:31:33;14.50;;;1.70;;
18651;SDS011;9455;54.302;10.124;2023-04-25T10:33:59;9.83;;;2.00;;
18651;SDS011;9455;54.302;10.124;2023-04-25T10:36:26;7.30;;;1.70;;
18651;SDS011;9455;54.302;10.124;2023-04-25T10:38:58;5.07;;;1.13;;
18651;SDS011;9455;54.302;10.124;2023-04-25T10:41:32;3.83;;;0.97;;
18651;SDS011;9455;54.302;10.124;2023-04-25T10:44:13;4.03;;;1.60;;
18651;SDS011;9455;54.302;10.124;2023-04-25T10:46:41;4.03;;;1.77;;
18651;SDS011;9455;54.302;10.124;2023-04-25T10:49:10;6.17;;;1.53;;
18651;SDS011;9455;54.302;10.124;2023-04-25T10:51:36;1.97;;;1.03;;
18651;SDS011;9455;54.302;10.124;2023-04-25T10:54:03;7.97;;;1.50;;
18651;SDS011;9455;54.302;10.124;2023-04-25T10:56:31;7.40;;;1.07;;
18651;SDS011;9455;54.302;10.124;2023-04-25T10:59:07;6.47;;;1.40;;
18651;SDS011;9455;54.302;10.124;2023-04-25T11:01:37;8.40;;;1.60;;
18651;SDS011;9455;54.302;10.124;2023-04-25T11:04:05;5.27;;;1.87;;
18651;SDS011;9455;54.302;10.124;2023-04-25T11:06:35;8.83;;;1.63;;
18651;SDS011;9455;54.302;10.124;2023-04-25T11:09:12;4.33;;;0.90;;
18651;SDS011;9455;54.302;10.124;2023-04-25T11:11:39;9.00;;;1.30;;
18651;SDS011;9455;54.302;10.124;2023-04-25T11:14:06;8.27;;;1.83;;
18651;SDS011;9455;54.302;10.124;2023-04-25T11:16:33;5.30;;;1.03;;
18651;SDS011;9455;54.302;10.124;2023-04-25T11:19:02;3.80;;;0.83;;
18651;SDS011;9455;54.302;10.124;2023-04-25T11:21:30;1.17;;;1.00;;
18651;SDS011;9455;54.302;10.124;2023-04-25T11:23:57;8.70;;;0.77;;
18651;SDS011;9455;54.302;10.124;2023-04-25T11:26:28;0.97;;;0.70;;
18651;SDS011;9455;54.302;10.124;2023-04-25T11:28:59;2.93;;;0.97;;
18651;SDS011;9455;54.302;10.124;2023-04-25T11:31:26;7.80;;;1.20;;
18651;SDS011;9455;54.302;10.124;2023-04-25T11:33:53;5.57;;;1.30;;
18651;SDS011;9455;54.302;10.124;2023-04-25T11:36:23;7.10;;;1.67;;
18651;SDS011;9455;54.302;10.124;2023-04-25T11:38:50;5.70;;;1.27;;
18651;SDS011;9455;54.302;10.124;2023-04-25T11:41:18;4.67;;;1.37;;
18651;SDS011;9455;54.302;10.124;2023-04-25T11:43:45;12.30;;;1.60;;
18651;SDS011;9455;54.302;10.124;2023-04-25T11:46:12;5.80;;;1.40;;
18651;SDS011;9455;54.302;10.124;2023-04-25T11:48:38;8.80;;;1.47;;
18651;SDS011;9455;54.302;10.124;2023-04-25T11:51:05;2.47;;;0.63;;
18651;SDS011;9455;54.302;10.124;2023-04-25T11:53:33;4.83;;;1.00;;
18651;SDS011;9455;54.302;10.124;2023-04-25T11:56:00;1.90;;;1.10;;
18651;SDS011;9455;54.302;10.124;2023-04-25T11:58:27;9.03;;;1.23;;
18651;SDS011;9455;54.302;10.124;2023-04-25T12:00:54;6.80;;;1.53;;
18651;SDS011;9455;54.302;10.124;2023-04-25T12:03:23;10.97;;;1.33;;
18651;SDS011;9455;54.302;10.124;2023-04-25T12:05:52;6.70;;;1.27;;
18651;SDS011;9455;54.302;10.124;2023-04-25T12:08:18;11.33;;;1.00;;
18651;SDS011;9455;54.302;10.124;2023-04-25T12:10:46;5.40;;;1.53;;
18651;SDS011;9455;54.302;10.124;2023-04-25T12:13:19;4.10;;;1.00;;
18651;SDS011;9455;54.302;10.124;2023-04-25T12:15:47;4.60;;;1.07;;
18651;SDS011;9455;54.302;10.124;2023-04-25T12:18:14;16.43;;;1.33;;
18651;SDS011;9455;54.302;10.124;2023-04-25T12:20:41;3.97;;;1.40;;
18651;SDS011;9455;54.302;10.124;2023-04-25T12:23:07;6.20;;;1.30;;
18651;SDS011;9455;54.302;10.124;2023-04-25T12:25:36;14.77;;;2.00;;
18651;SDS011;9455;54.302;10.124;2023-04-25T12:28:12;8.57;;;1.77;;
18651;SDS011;9455;54.302;10.124;2023-04-25T12:30:55;7.23;;;1.30;;
18651;SDS011;9455;54.302;10.124;2023-04-25T12:33:23;7.87;;;1.03;;
18651;SDS011;9455;54.302;10.124;2023-04-25T12:35:51;9.27;;;1.80;;
18651;SDS011;9455;54.302;10.124;2023-04-25T12:38:22;6.87;;;1.70;;
18651;SDS011;9455;54.302;10.124;2023-04-25T12:40:49;3.20;;;1.53;;
18651;SDS011;9455;54.302;10.124;2023-04-25T12:43:17;6.00;;;1.63;;
18651;SDS011;9455;54.302;10.124;2023-04-25T12:45:44;6.37;;;1.30;;
18651;SDS011;9455;54.302;10.124;2023-04-25T12:48:10;16.93;;;1.63;;
18651;SDS011;9455;54.302;10.124;2023-04-25T12:50:37;11.83;;;1.63;;
18651;SDS011;9455;54.302;10.124;2023-04-25T12:53:04;14.20;;;2.70;;
18651;SDS011;9455;54.302;10.124;2023-04-25T12:55:30;21.53;;;2.57;;
18651;SDS011;9455;54.302;10.124;2023-04-25T12:57:57;5.17;;;1.40;;
18651;SDS011;9455;54.302;10.124;2023-04-25T13:00:25;6.77;;;1.50;;
18651;SDS011;9455;54.302;10.124;2023-04-25T13:02:52;8.77;;;1.60;;
18651;SDS011;9455;54.302;10.124;2023-04-25T13:05:19;7.40;;;1.40;;
18651;SDS011;9455;54.302;10.124;2023-04-25T13:07:45;2.20;;;1.00;;
18651;SDS011;9455;54.302;10.124;2023-04-25T13:10:12;8.07;;;1.50;;
18651;SDS011;9455;54.302;10.124;2023-04-25T13:12:39;5.47;;;1.67;;
18651;SDS011;9455;54.302;10.124;2023-04-25T13:15:05;10.77;;;1.67;;
18651;SDS011;9455;54.302;10.124;2023-04-25T13:17:35;7.13;;;1.90;;
18651;SDS011;9455;54.302;10.124;2023-04-25T13:20:02;13.10;;;1.83;;
18651;SDS011;9455;54.302;10.124;2023-04-25T13:22:30;9.33;;;1.50;;
18651;SDS011;9455;54.302;10.124;2023-04-25T13:24:57;10.33;;;1.33;;
18651;SDS011;9455;54.302;10.124;2023-04-25T13:27:23;4.63;;;1.60;;
18651;SDS011;9455;54.302;10.124;2023-04-25T13:29:50;9.93;;;1.80;;
18651;SDS011;9455;54.302;10.124;2023-04-25T13:32:17;8.33;;;1.47;;
18651;SDS011;9455;54.302;10.124;2023-04-25T13:34:45;10.97;;;1.70;;
18651;SDS011;9455;54.302;10.124;2023-04-25T13:37:12;11.50;;;2.37;;
18651;SDS011;9455;54.302;10.124;2023-04-25T13:39:38;5.23;;;1.90;;
18651;SDS011;9455;54.302;10.124;2023-04-25T13:42:05;6.77;;;1.73;;
18651;SDS011;9455;54.302;10.124;2023-04-25T13:44:31;4.93;;;1.30;;
18651;SDS011;9455;54.302;10.124;2023-04-25T13:46:58;7.47;;;2.10;;
18651;SDS011;9455;54.302;10.124;2023-04-25T13:49:25;6.10;;;1.50;;
18651;SDS011;9455;54.302;10.124;2023-04-25T13:51:53;4.17;;;2.07;;
18651;SDS011;9455;54.302;10.124;2023-04-25T13:54:20;11.13;;;1.63;;
18651;SDS011;9455;54.302;10.124;2023-04-25T13:56:47;9.07;;;1.93;;
18651;SDS011;9455;54.302;10.124;2023-04-25T13:59:15;9.63;;;1.70;;
18651;SDS011;9455;54.302;10.124;2023-04-25T14:01:43;9.80;;;1.47;;
18651;SDS011;9455;54.302;10.124;2023-04-25T14:04:09;16.63;;;2.03;;
18651;SDS011;9455;54.302;10.124;2023-04-25T14:06:36;12.87;;;2.17;;
18651;SDS011;9455;54.302;10.124;2023-04-25T14:09:04;11.43;;;1.67;;
18651;SDS011;9455;54.302;10.124;2023-04-25T14:11:32;9.97;;;1.60;;
18651;SDS011;9455;54.302;10.124;2023-04-25T14:13:58;6.17;;;1.63;;
18651;SDS011;9455;54.302;10.124;2023-04-25T14:16:25;10.60;;;1.73;;
18651;SDS011;9455;54.302;10.124;2023-04-25T14:18:51;10.73;;;1.50;;
18651;SDS011;9455;54.302;10.124;2023-04-25T14:21:19;5.47;;;1.43;;
18651;SDS011;9455;54.302;10.124;2023-04-25T14:23:46;11.30;;;1.57;;
18651;SDS011;9455;54.302;10.124;2023-04-25T14:26:14;8.73;;;1.90;;
18651;SDS011;9455;54.302;10.124;2023-04-25T14:28:41;5.03;;;1.93;;
18651;SDS011;9455;54.302;10.124;2023-04-25T14:31:07;10.33;;;1.77;;
18651;SDS011;9455;54.302;10.124;2023-04-25T14:33:34;8.60;;;1.97;;
18651;SDS011;9455;54.302;10.124;2023-04-25T14:36:02;8.33;;;1.47;;
18651;SDS011;9455;54.302;10.124;2023-04-25T14:38:29;4.33;;;1.77;;
18651;SDS011;9455;54.302;10.124;2023-04-25T14:40:55;14.20;;;1.90;;